sensor_id;sensor_type;location;lat;lon;timestamp;P1;durP1;ratioP1;P2;durP2;ratioP2
67889;SDS011;54685;52.082;5.426;2022-09-27T00:00:42;3.92;;;0.68;;
67889;SDS011;54685;52.082;5.426;2022-09-27T00:03:09;5.55;;;0.73;;
67889;SDS011;54685;52.082;5.426;2022-09-27T00:05:37;6.25;;;1.08;;
67889;SDS011;54685;52.082;5.426;2022-09-27T00:08:04;4.15;;;0.80;;
67889;SDS011;54685;52.082;5.426;2022-09-27T00:10:30;9.00;;;0.88;;
67889;SDS011;54685;52.082;5.426;2022-09-27T00:12:57;4.03;;;0.75;;
67889;SDS011;54685;52.082;5.426;2022-09-27T00:15:24;5.03;;;0.63;;
67889;SDS011;54685;52.082;5.426;2022-09-27T00:17:51;9.75;;;0.80;;
67889;SDS011;54685;52.082;5.426;2022-09-27T00:20:18;4.35;;;0.70;;
67889;SDS011;54685;52.082;5.426;2022-09-27T00:22:46;4.97;;;0.50;;
67889;SDS011;54685;52.082;5.426;2022-09-27T00:25:14;8.40;;;0.75;;
67889;SDS011;54685;52.082;5.426;2022-09-27T00:27:41;9.63;;;0.77;;
67889;SDS011;54685;52.082;5.426;2022-09-27T00:30:08;4.15;;;0.55;;
67889;SDS011;54685;52.082;5.426;2022-09-27T00:32:36;1.58;;;0.43;;
67889;SDS011;54685;52.082;5.426;2022-09-27T00:35:02;5.60;;;0.80;;
67889;SDS011;54685;52.082;5.426;2022-09-27T00:37:30;6.75;;;0.70;;
67889;SDS011;54685;52.082;5.426;2022-09-27T00:39:56;10.57;;;0.75;;
67889;SDS011;54685;52.082;5.426;2022-09-27T00:42:24;6.13;;;0.70;;
67889;SDS011;54685;52.082;5.426;2022-09-27T00:44:58;6.47;;;1.00;;
67889;SDS011;54685;52.082;5.426;2022-09-27T00:47:40;4.07;;;0.52;;
67889;SDS011;54685;52.082;5.426;2022-09-27T00:55:56;4.43;;;0.60;;
67889;SDS011;54685;52.082;5.426;2022-09-27T00:58:35;5.80;;;0.68;;
67889;SDS011;54685;52.082;5.426;2022-09-27T01:01:06;5.90;;;1.02;;
67889;SDS011;54685;52.082;5.426;2022-09-27T01:03:53;8.15;;;0.73;;
67889;SDS011;54685;52.082;5.426;2022-09-27T01:06:33;7.63;;;0.95;;
67889;SDS011;54685;52.082;5.426;2022-09-27T01:09:01;5.40;;;0.52;;
67889;SDS011;54685;52.082;5.426;2022-09-27T01:11:40;6.45;;;0.85;;
67889;SDS011;54685;52.082;5.426;2022-09-27T01:17:05;6.57;;;0.60;;
67889;SDS011;54685;52.082;5.426;2022-09-27T01:22:52;8.07;;;0.77;;
67889;SDS011;54685;52.082;5.426;2022-09-27T01:25:32;4.47;;;0.50;;
67889;SDS011;54685;52.082;5.426;2022-09-27T01:28:19;4.03;;;0.60;;
67889;SDS011;54685;52.082;5.426;2022-09-27T01:31:08;6.35;;;0.95;;
67889;SDS011;54685;52.082;5.426;2022-09-27T01:39:57;2.70;;;0.70;;
67889;SDS011;54685;52.082;5.426;2022-09-27T01:42:47;4.30;;;0.60;;
67889;SDS011;54685;52.082;5.426;2022-09-27T01:45:28;7.13;;;0.85;;
67889;SDS011;54685;52.082;5.426;2022-09-27T01:48:17;6.32;;;0.80;;
67889;SDS011;54685;52.082;5.426;2022-09-27T01:50:54;3.90;;;0.70;;
67889;SDS011;54685;52.082;5.426;2022-09-27T01:53:28;4.80;;;0.93;;
67889;SDS011;54685;52.082;5.426;2022-09-27T01:56:32;8.30;;;0.75;;
67889;SDS011;54685;52.082;5.426;2022-09-27T01:59:09;5.47;;;0.68;;
67889;SDS011;54685;52.082;5.426;2022-09-27T02:01:47;8.10;;;1.23;;
67889;SDS011;54685;52.082;5.426;2022-09-27T02:04:20;5.28;;;0.93;;
67889;SDS011;54685;52.082;5.426;2022-09-27T02:07:14;4.72;;;0.65;;
67889;SDS011;54685;52.082;5.426;2022-09-27T02:09:48;7.30;;;0.90;;
67889;SDS011;54685;52.082;5.426;2022-09-27T02:12:34;11.68;;;0.98;;
67889;SDS011;54685;52.082;5.426;2022-09-27T02:15:11;5.13;;;0.93;;
67889;SDS011;54685;52.082;5.426;2022-09-27T02:17:54;3.35;;;0.80;;
67889;SDS011;54685;52.082;5.426;2022-09-27T02:20:30;3.53;;;0.90;;
67889;SDS011;54685;52.082;5.426;2022-09-27T02:30:42;2.70;;;0.73;;
67889;SDS011;54685;52.082;5.426;2022-09-27T02:33:23;7.85;;;0.68;;
67889;SDS011;54685;52.082;5.426;2022-09-27T02:36:00;2.20;;;0.60;;
67889;SDS011;54685;52.082;5.426;2022-09-27T02:38:26;4.50;;;0.95;;
67889;SDS011;54685;52.082;5.426;2022-09-27T02:40:54;5.40;;;0.95;;
67889;SDS011;54685;52.082;5.426;2022-09-27T02:43:26;5.75;;;0.93;;
67889;SDS011;54685;52.082;5.426;2022-09-27T02:58:03;2.55;;;0.90;;
67889;SDS011;54685;52.082;5.426;2022-09-27T03:01:11;2.45;;;0.70;;
67889;SDS011;54685;52.082;5.426;2022-09-27T03:04:10;5.75;;;0.77;;
67889;SDS011;54685;52.082;5.426;2022-09-27T03:06:42;6.13;;;1.00;;
67889;SDS011;54685;52.082;5.426;2022-09-27T03:09:21;5.40;;;0.90;;
67889;SDS011;54685;52.082;5.426;2022-09-27T03:11:50;9.18;;;1.15;;
67889;SDS011;54685;52.082;5.426;2022-09-27T03:14:18;8.05;;;1.08;;
67889;SDS011;54685;52.082;5.426;2022-09-27T03:17:03;6.78;;;1.00;;
67889;SDS011;54685;52.082;5.426;2022-09-27T03:19:48;7.70;;;1.27;;
67889;SDS011;54685;52.082;5.426;2022-09-27T03:22:44;7.53;;;1.05;;
67889;SDS011;54685;52.082;5.426;2022-09-27T03:25:12;4.53;;;1.10;;
67889;SDS011;54685;52.082;5.426;2022-09-27T03:27:39;5.88;;;1.13;;
67889;SDS011;54685;52.082;5.426;2022-09-27T03:30:06;5.60;;;1.02;;
67889;SDS011;54685;52.082;5.426;2022-09-27T03:32:34;10.57;;;0.90;;
67889;SDS011;54685;52.082;5.426;2022-09-27T03:35:25;10.05;;;1.27;;
67889;SDS011;54685;52.082;5.426;2022-09-27T03:37:52;7.45;;;1.17;;
67889;SDS011;54685;52.082;5.426;2022-09-27T03:40:19;6.60;;;1.42;;
67889;SDS011;54685;52.082;5.426;2022-09-27T03:42:46;8.05;;;1.15;;
67889;SDS011;54685;52.082;5.426;2022-09-27T03:45:15;7.32;;;1.17;;
67889;SDS011;54685;52.082;5.426;2022-09-27T03:47:43;11.13;;;1.80;;
67889;SDS011;54685;52.082;5.426;2022-09-27T03:50:10;6.05;;;1.45;;
67889;SDS011;54685;52.082;5.426;2022-09-27T03:52:37;9.30;;;1.40;;
67889;SDS011;54685;52.082;5.426;2022-09-27T03:55:04;6.82;;;1.00;;
67889;SDS011;54685;52.082;5.426;2022-09-27T03:57:32;8.52;;;1.02;;
67889;SDS011;54685;52.082;5.426;2022-09-27T03:59:58;7.97;;;1.10;;
67889;SDS011;54685;52.082;5.426;2022-09-27T04:02:37;6.13;;;1.15;;
67889;SDS011;54685;52.082;5.426;2022-09-27T04:05:28;9.70;;;1.30;;
67889;SDS011;54685;52.082;5.426;2022-09-27T04:08:02;7.72;;;1.08;;
67889;SDS011;54685;52.082;5.426;2022-09-27T04:10:32;5.68;;;1.00;;
67889;SDS011;54685;52.082;5.426;2022-09-27T04:12:59;6.22;;;1.13;;
67889;SDS011;54685;52.082;5.426;2022-09-27T04:15:30;7.68;;;1.20;;
67889;SDS011;54685;52.082;5.426;2022-09-27T04:18:17;8.77;;;1.00;;
67889;SDS011;54685;52.082;5.426;2022-09-27T04:21:02;11.75;;;1.45;;
67889;SDS011;54685;52.082;5.426;2022-09-27T04:23:30;7.82;;;1.02;;
67889;SDS011;54685;52.082;5.426;2022-09-27T04:25:57;13.25;;;1.40;;
67889;SDS011;54685;52.082;5.426;2022-09-27T04:28:40;9.52;;;1.50;;
67889;SDS011;54685;52.082;5.426;2022-09-27T04:31:09;6.50;;;0.90;;
67889;SDS011;54685;52.082;5.426;2022-09-27T04:33:36;11.65;;;1.48;;
67889;SDS011;54685;52.082;5.426;2022-09-27T04:36:08;12.73;;;1.48;;
67889;SDS011;54685;52.082;5.426;2022-09-27T04:38:59;7.78;;;1.25;;
67889;SDS011;54685;52.082;5.426;2022-09-27T04:41:28;8.50;;;1.33;;
67889;SDS011;54685;52.082;5.426;2022-09-27T04:43:55;7.05;;;1.40;;
67889;SDS011;54685;52.082;5.426;2022-09-27T04:46:25;7.22;;;1.63;;
67889;SDS011;54685;52.082;5.426;2022-09-27T04:48:54;11.38;;;1.90;;
67889;SDS011;54685;52.082;5.426;2022-09-27T04:51:21;5.95;;;1.58;;
67889;SDS011;54685;52.082;5.426;2022-09-27T04:53:48;8.15;;;1.10;;
67889;SDS011;54685;52.082;5.426;2022-09-27T04:56:15;6.43;;;1.23;;
67889;SDS011;54685;52.082;5.426;2022-09-27T04:58:42;9.43;;;1.10;;
67889;SDS011;54685;52.082;5.426;2022-09-27T05:01:08;9.07;;;1.05;;
67889;SDS011;54685;52.082;5.426;2022-09-27T05:03:50;5.78;;;1.10;;
67889;SDS011;54685;52.082;5.426;2022-09-27T05:06:17;6.00;;;1.63;;
67889;SDS011;54685;52.082;5.426;2022-09-27T05:08:44;9.07;;;1.02;;
67889;SDS011;54685;52.082;5.426;2022-09-27T05:11:23;7.13;;;1.45;;
67889;SDS011;54685;52.082;5.426;2022-09-27T05:14:09;11.23;;;1.08;;
67889;SDS011;54685;52.082;5.426;2022-09-27T05:16:46;5.82;;;0.93;;
67889;SDS011;54685;52.082;5.426;2022-09-27T05:19:33;4.03;;;1.05;;
67889;SDS011;54685;52.082;5.426;2022-09-27T05:22:08;6.07;;;1.05;;
67889;SDS011;54685;52.082;5.426;2022-09-27T05:24:35;6.60;;;1.17;;
67889;SDS011;54685;52.082;5.426;2022-09-27T05:27:04;4.50;;;0.98;;
67889;SDS011;54685;52.082;5.426;2022-09-27T05:29:34;8.88;;;1.10;;
67889;SDS011;54685;52.082;5.426;2022-09-27T05:32:09;6.07;;;1.30;;
67889;SDS011;54685;52.082;5.426;2022-09-27T05:34:36;4.28;;;1.25;;
67889;SDS011;54685;52.082;5.426;2022-09-27T05:37:03;5.35;;;1.05;;
67889;SDS011;54685;52.082;5.426;2022-09-27T05:39:34;5.15;;;0.98;;
67889;SDS011;54685;52.082;5.426;2022-09-27T05:42:01;7.00;;;1.10;;
67889;SDS011;54685;52.082;5.426;2022-09-27T05:44:29;10.15;;;1.48;;
67889;SDS011;54685;52.082;5.426;2022-09-27T05:47:01;6.40;;;1.13;;
67889;SDS011;54685;52.082;5.426;2022-09-27T05:49:29;6.13;;;1.30;;
67889;SDS011;54685;52.082;5.426;2022-09-27T05:51:57;7.50;;;1.60;;
67889;SDS011;54685;52.082;5.426;2022-09-27T05:54:26;5.43;;;1.05;;
67889;SDS011;54685;52.082;5.426;2022-09-27T05:56:56;6.43;;;1.23;;
67889;SDS011;54685;52.082;5.426;2022-09-27T05:59:51;7.72;;;1.38;;
67889;SDS011;54685;52.082;5.426;2022-09-27T06:02:18;9.45;;;1.60;;
67889;SDS011;54685;52.082;5.426;2022-09-27T06:04:54;8.90;;;1.63;;
67889;SDS011;54685;52.082;5.426;2022-09-27T06:07:38;7.18;;;1.33;;
67889;SDS011;54685;52.082;5.426;2022-09-27T06:10:11;4.35;;;1.20;;
67889;SDS011;54685;52.082;5.426;2022-09-27T06:12:38;4.18;;;1.02;;
67889;SDS011;54685;52.082;5.426;2022-09-27T06:15:15;9.32;;;1.42;;
67889;SDS011;54685;52.082;5.426;2022-09-27T06:17:43;5.18;;;0.95;;
67889;SDS011;54685;52.082;5.426;2022-09-27T06:22:44;8.75;;;1.60;;
67889;SDS011;54685;52.082;5.426;2022-09-27T06:25:11;4.60;;;1.00;;
67889;SDS011;54685;52.082;5.426;2022-09-27T06:27:52;6.13;;;1.00;;
67889;SDS011;54685;52.082;5.426;2022-09-27T06:30:22;7.25;;;1.27;;
67889;SDS011;54685;52.082;5.426;2022-09-27T06:32:58;6.47;;;1.00;;
67889;SDS011;54685;52.082;5.426;2022-09-27T06:35:33;3.47;;;1.00;;
67889;SDS011;54685;52.082;5.426;2022-09-27T06:38:07;5.40;;;1.30;;
67889;SDS011;54685;52.082;5.426;2022-09-27T06:40:43;5.35;;;1.10;;
67889;SDS011;54685;52.082;5.426;2022-09-27T06:43:33;3.88;;;0.77;;
67889;SDS011;54685;52.082;5.426;2022-09-27T06:46:10;6.30;;;1.02;;
67889;SDS011;54685;52.082;5.426;2022-09-27T06:49:03;3.53;;;0.85;;
67889;SDS011;54685;52.082;5.426;2022-09-27T06:51:31;7.63;;;1.00;;
67889;SDS011;54685;52.082;5.426;2022-09-27T06:53:58;3.53;;;0.63;;
67889;SDS011;54685;52.082;5.426;2022-09-27T06:56:24;4.22;;;0.73;;
67889;SDS011;54685;52.082;5.426;2022-09-27T06:58:51;4.35;;;0.95;;
67889;SDS011;54685;52.082;5.426;2022-09-27T07:01:40;6.88;;;1.20;;
67889;SDS011;54685;52.082;5.426;2022-09-27T07:04:30;8.48;;;0.88;;
67889;SDS011;54685;52.082;5.426;2022-09-27T07:07:06;5.65;;;0.85;;
67889;SDS011;54685;52.082;5.426;2022-09-27T07:09:35;3.25;;;0.90;;
67889;SDS011;54685;52.082;5.426;2022-09-27T07:12:05;3.63;;;1.10;;
67889;SDS011;54685;52.082;5.426;2022-09-27T07:14:32;4.05;;;0.88;;
67889;SDS011;54685;52.082;5.426;2022-09-27T07:17:00;3.22;;;0.90;;
67889;SDS011;54685;52.082;5.426;2022-09-27T07:19:32;4.43;;;1.00;;
67889;SDS011;54685;52.082;5.426;2022-09-27T07:21:59;4.13;;;0.82;;
67889;SDS011;54685;52.082;5.426;2022-09-27T07:24:27;5.28;;;1.02;;
67889;SDS011;54685;52.082;5.426;2022-09-27T07:26:54;4.65;;;0.98;;
67889;SDS011;54685;52.082;5.426;2022-09-27T07:29:21;2.67;;;0.90;;
67889;SDS011;54685;52.082;5.426;2022-09-27T07:31:50;4.78;;;1.02;;
67889;SDS011;54685;52.082;5.426;2022-09-27T07:34:17;4.22;;;1.15;;
67889;SDS011;54685;52.082;5.426;2022-09-27T07:36:44;5.22;;;0.80;;
67889;SDS011;54685;52.082;5.426;2022-09-27T07:39:12;7.45;;;1.40;;
67889;SDS011;54685;52.082;5.426;2022-09-27T07:41:41;7.20;;;1.10;;
67889;SDS011;54685;52.082;5.426;2022-09-27T07:44:10;4.78;;;1.20;;
67889;SDS011;54685;52.082;5.426;2022-09-27T07:46:53;4.50;;;1.20;;
67889;SDS011;54685;52.082;5.426;2022-09-27T07:49:23;10.48;;;1.30;;
67889;SDS011;54685;52.082;5.426;2022-09-27T07:51:53;4.47;;;1.05;;
67889;SDS011;54685;52.082;5.426;2022-09-27T07:54:38;7.38;;;1.25;;
67889;SDS011;54685;52.082;5.426;2022-09-27T07:57:12;3.40;;;1.23;;
67889;SDS011;54685;52.082;5.426;2022-09-27T07:59:48;4.88;;;1.23;;
67889;SDS011;54685;52.082;5.426;2022-09-27T08:02:18;6.03;;;1.13;;
67889;SDS011;54685;52.082;5.426;2022-09-27T08:04:46;3.03;;;0.93;;
67889;SDS011;54685;52.082;5.426;2022-09-27T08:07:13;5.85;;;1.35;;
67889;SDS011;54685;52.082;5.426;2022-09-27T08:09:43;5.00;;;1.00;;
67889;SDS011;54685;52.082;5.426;2022-09-27T08:12:11;4.32;;;0.90;;
67889;SDS011;54685;52.082;5.426;2022-09-27T08:14:38;5.13;;;1.25;;
67889;SDS011;54685;52.082;5.426;2022-09-27T08:17:12;11.02;;;1.33;;
67889;SDS011;54685;52.082;5.426;2022-09-27T08:19:58;7.57;;;1.25;;
67889;SDS011;54685;52.082;5.426;2022-09-27T08:22:41;4.30;;;1.00;;
67889;SDS011;54685;52.082;5.426;2022-09-27T08:25:28;6.50;;;1.13;;
67889;SDS011;54685;52.082;5.426;2022-09-27T08:28:15;4.63;;;1.02;;
67889;SDS011;54685;52.082;5.426;2022-09-27T08:30:51;3.90;;;1.17;;
67889;SDS011;54685;52.082;5.426;2022-09-27T08:33:18;2.70;;;0.85;;
67889;SDS011;54685;52.082;5.426;2022-09-27T08:35:45;2.05;;;0.93;;
67889;SDS011;54685;52.082;5.426;2022-09-27T08:38:12;3.05;;;0.65;;
67889;SDS011;54685;52.082;5.426;2022-09-27T08:43:29;5.65;;;1.20;;
67889;SDS011;54685;52.082;5.426;2022-09-27T08:48:34;2.33;;;0.80;;
67889;SDS011;54685;52.082;5.426;2022-09-27T08:51:03;7.30;;;1.10;;
67889;SDS011;54685;52.082;5.426;2022-09-27T08:53:32;5.32;;;1.30;;
67889;SDS011;54685;52.082;5.426;2022-09-27T08:56:06;4.00;;;0.98;;
67889;SDS011;54685;52.082;5.426;2022-09-27T08:58:44;3.70;;;1.10;;
67889;SDS011;54685;52.082;5.426;2022-09-27T09:01:21;5.50;;;0.93;;
67889;SDS011;54685;52.082;5.426;2022-09-27T09:04:00;4.68;;;1.13;;
67889;SDS011;54685;52.082;5.426;2022-09-27T09:12:24;8.57;;;1.10;;
67889;SDS011;54685;52.082;5.426;2022-09-27T09:27:04;5.05;;;0.60;;
67889;SDS011;54685;52.082;5.426;2022-09-27T09:32:47;3.25;;;0.85;;
67889;SDS011;54685;52.082;5.426;2022-09-27T09:35:20;3.50;;;0.60;;
67889;SDS011;54685;52.082;5.426;2022-09-27T09:37:56;5.88;;;1.00;;
67889;SDS011;54685;52.082;5.426;2022-09-27T09:40:34;5.13;;;0.82;;
67889;SDS011;54685;52.082;5.426;2022-09-27T09:43:12;3.70;;;0.60;;
67889;SDS011;54685;52.082;5.426;2022-09-27T09:45:54;3.35;;;0.80;;
67889;SDS011;54685;52.082;5.426;2022-09-27T09:48:34;5.82;;;0.70;;
67889;SDS011;54685;52.082;5.426;2022-09-27T09:56:39;4.05;;;0.60;;
67889;SDS011;54685;52.082;5.426;2022-09-27T09:59:23;2.03;;;0.80;;
67889;SDS011;54685;52.082;5.426;2022-09-27T10:01:57;2.92;;;0.75;;
67889;SDS011;54685;52.082;5.426;2022-09-27T10:04:28;3.92;;;0.73;;
67889;SDS011;54685;52.082;5.426;2022-09-27T10:06:58;3.25;;;0.55;;
67889;SDS011;54685;52.082;5.426;2022-09-27T10:09:30;4.78;;;0.60;;
67889;SDS011;54685;52.082;5.426;2022-09-27T10:12:17;2.63;;;0.47;;
67889;SDS011;54685;52.082;5.426;2022-09-27T10:14:46;1.75;;;0.63;;
67889;SDS011;54685;52.082;5.426;2022-09-27T10:17:15;2.78;;;0.60;;
67889;SDS011;54685;52.082;5.426;2022-09-27T10:19:44;4.78;;;1.00;;
67889;SDS011;54685;52.082;5.426;2022-09-27T10:25:11;3.42;;;0.65;;
67889;SDS011;54685;52.082;5.426;2022-09-27T10:28:00;2.75;;;0.70;;
67889;SDS011;54685;52.082;5.426;2022-09-27T10:30:31;3.78;;;0.65;;
67889;SDS011;54685;52.082;5.426;2022-09-27T10:33:16;3.88;;;0.60;;
67889;SDS011;54685;52.082;5.426;2022-09-27T10:35:50;1.58;;;0.43;;
67889;SDS011;54685;52.082;5.426;2022-09-27T10:38:35;3.95;;;0.73;;
67889;SDS011;54685;52.082;5.426;2022-09-27T10:46:47;1.85;;;0.45;;
67889;SDS011;54685;52.082;5.426;2022-09-27T10:49:37;4.43;;;0.90;;
67889;SDS011;54685;52.082;5.426;2022-09-27T10:52:15;4.22;;;0.60;;
67889;SDS011;54685;52.082;5.426;2022-09-27T10:54:55;1.10;;;0.40;;
67889;SDS011;54685;52.082;5.426;2022-09-27T10:57:28;2.70;;;0.65;;
67889;SDS011;54685;52.082;5.426;2022-09-27T11:00:04;6.97;;;0.65;;
67889;SDS011;54685;52.082;5.426;2022-09-27T11:03:04;1.98;;;0.63;;
67889;SDS011;54685;52.082;5.426;2022-09-27T11:05:38;3.83;;;0.73;;
67889;SDS011;54685;52.082;5.426;2022-09-27T11:11:04;2.67;;;0.50;;
67889;SDS011;54685;52.082;5.426;2022-09-27T11:13:58;1.98;;;0.60;;
67889;SDS011;54685;52.082;5.426;2022-09-27T11:22:21;2.15;;;0.55;;
67889;SDS011;54685;52.082;5.426;2022-09-27T11:25:24;1.77;;;0.57;;
67889;SDS011;54685;52.082;5.426;2022-09-27T11:33:34;3.08;;;0.70;;
67889;SDS011;54685;52.082;5.426;2022-09-27T11:36:25;3.97;;;0.75;;
67889;SDS011;54685;52.082;5.426;2022-09-27T12:02:33;1.60;;;0.50;;
67889;SDS011;54685;52.082;5.426;2022-09-27T12:13:46;0.73;;;0.50;;
67889;SDS011;54685;52.082;5.426;2022-09-27T12:16:17;1.80;;;0.40;;
67889;SDS011;54685;52.082;5.426;2022-09-27T12:18:45;2.20;;;0.60;;
67889;SDS011;54685;52.082;5.426;2022-09-27T12:21:33;1.60;;;0.40;;
67889;SDS011;54685;52.082;5.426;2022-09-27T12:24:00;3.20;;;0.65;;
67889;SDS011;54685;52.082;5.426;2022-09-27T12:26:39;3.10;;;0.73;;
67889;SDS011;54685;52.082;5.426;2022-09-27T12:29:10;1.85;;;0.80;;
67889;SDS011;54685;52.082;5.426;2022-09-27T12:34:38;1.73;;;0.75;;
67889;SDS011;54685;52.082;5.426;2022-09-27T12:40:27;2.28;;;0.80;;
67889;SDS011;54685;52.082;5.426;2022-09-27T12:51:53;5.38;;;0.75;;
67889;SDS011;54685;52.082;5.426;2022-09-27T12:57:23;5.15;;;2.17;;
67889;SDS011;54685;52.082;5.426;2022-09-27T13:00:18;2.15;;;0.90;;
67889;SDS011;54685;52.082;5.426;2022-09-27T13:02:59;2.17;;;0.95;;
67889;SDS011;54685;52.082;5.426;2022-09-27T13:08:57;5.07;;;0.85;;
67889;SDS011;54685;52.082;5.426;2022-09-27T13:14:29;1.40;;;0.60;;
67889;SDS011;54685;52.082;5.426;2022-09-27T13:17:00;4.28;;;0.88;;
67889;SDS011;54685;52.082;5.426;2022-09-27T13:19:41;2.97;;;0.73;;
67889;SDS011;54685;52.082;5.426;2022-09-27T13:25:00;1.88;;;0.65;;
67889;SDS011;54685;52.082;5.426;2022-09-27T13:27:45;3.33;;;0.98;;
67889;SDS011;54685;52.082;5.426;2022-09-27T13:35:42;2.90;;;0.88;;
67889;SDS011;54685;52.082;5.426;2022-09-27T13:38:32;3.92;;;1.60;;
67889;SDS011;54685;52.082;5.426;2022-09-27T13:41:12;2.15;;;1.00;;
67889;SDS011;54685;52.082;5.426;2022-09-27T13:46:36;4.63;;;1.02;;
67889;SDS011;54685;52.082;5.426;2022-09-27T13:52:15;2.70;;;1.55;;
67889;SDS011;54685;52.082;5.426;2022-09-27T14:00:49;2.03;;;0.68;;
67889;SDS011;54685;52.082;5.426;2022-09-27T14:05:59;2.17;;;0.90;;
67889;SDS011;54685;52.082;5.426;2022-09-27T14:08:55;3.33;;;0.80;;
67889;SDS011;54685;52.082;5.426;2022-09-27T14:11:27;5.90;;;1.20;;
67889;SDS011;54685;52.082;5.426;2022-09-27T14:13:57;2.78;;;1.17;;
67889;SDS011;54685;52.082;5.426;2022-09-27T14:16:32;4.68;;;1.13;;
67889;SDS011;54685;52.082;5.426;2022-09-27T14:19:01;3.10;;;0.93;;
67889;SDS011;54685;52.082;5.426;2022-09-27T14:21:37;1.85;;;0.70;;
67889;SDS011;54685;52.082;5.426;2022-09-27T14:24:20;5.95;;;1.40;;
67889;SDS011;54685;52.082;5.426;2022-09-27T14:29:38;4.15;;;1.73;;
67889;SDS011;54685;52.082;5.426;2022-09-27T14:32:25;5.05;;;1.20;;
67889;SDS011;54685;52.082;5.426;2022-09-27T14:35:03;2.60;;;1.00;;
67889;SDS011;54685;52.082;5.426;2022-09-27T14:37:31;3.13;;;0.75;;
67889;SDS011;54685;52.082;5.426;2022-09-27T14:40:05;1.88;;;0.70;;
67889;SDS011;54685;52.082;5.426;2022-09-27T14:42:44;5.47;;;1.20;;
67889;SDS011;54685;52.082;5.426;2022-09-27T14:45:19;5.55;;;2.33;;
67889;SDS011;54685;52.082;5.426;2022-09-27T14:48:01;5.03;;;1.45;;
67889;SDS011;54685;52.082;5.426;2022-09-27T14:50:51;1.88;;;1.00;;
67889;SDS011;54685;52.082;5.426;2022-09-27T14:53:32;3.10;;;1.00;;
67889;SDS011;54685;52.082;5.426;2022-09-27T14:56:00;3.50;;;1.42;;
67889;SDS011;54685;52.082;5.426;2022-09-27T14:58:28;3.60;;;1.17;;
67889;SDS011;54685;52.082;5.426;2022-09-27T15:01:16;3.85;;;1.05;;
67889;SDS011;54685;52.082;5.426;2022-09-27T15:03:45;2.90;;;0.85;;
67889;SDS011;54685;52.082;5.426;2022-09-27T15:06:16;2.97;;;1.05;;
67889;SDS011;54685;52.082;5.426;2022-09-27T15:08:43;2.88;;;1.20;;
67889;SDS011;54685;52.082;5.426;2022-09-27T15:11:15;1.65;;;1.17;;
67889;SDS011;54685;52.082;5.426;2022-09-27T15:13:44;3.42;;;1.58;;
67889;SDS011;54685;52.082;5.426;2022-09-27T15:16:14;4.90;;;2.20;;
67889;SDS011;54685;52.082;5.426;2022-09-27T15:19:12;6.72;;;1.90;;
67889;SDS011;54685;52.082;5.426;2022-09-27T15:21:53;5.50;;;1.35;;
67889;SDS011;54685;52.082;5.426;2022-09-27T15:27:17;3.88;;;1.10;;
67889;SDS011;54685;52.082;5.426;2022-09-27T15:29:50;6.72;;;1.50;;
67889;SDS011;54685;52.082;5.426;2022-09-27T15:32:20;5.65;;;1.73;;
67889;SDS011;54685;52.082;5.426;2022-09-27T15:34:49;4.63;;;1.83;;
67889;SDS011;54685;52.082;5.426;2022-09-27T15:39:52;4.72;;;1.83;;
67889;SDS011;54685;52.082;5.426;2022-09-27T15:42:19;4.63;;;1.70;;
67889;SDS011;54685;52.082;5.426;2022-09-27T15:49:57;2.88;;;1.17;;
67889;SDS011;54685;52.082;5.426;2022-09-27T15:52:38;2.90;;;1.10;;
67889;SDS011;54685;52.082;5.426;2022-09-27T15:55:19;2.90;;;1.10;;
67889;SDS011;54685;52.082;5.426;2022-09-27T15:57:53;8.02;;;1.40;;
67889;SDS011;54685;52.082;5.426;2022-09-27T16:02:51;7.47;;;1.50;;
67889;SDS011;54685;52.082;5.426;2022-09-27T16:05:20;6.25;;;1.83;;
67889;SDS011;54685;52.082;5.426;2022-09-27T16:07:49;1.85;;;1.05;;
67889;SDS011;54685;52.082;5.426;2022-09-27T16:10:20;5.55;;;1.40;;
67889;SDS011;54685;52.082;5.426;2022-09-27T16:12:51;2.30;;;1.60;;
67889;SDS011;54685;52.082;5.426;2022-09-27T16:15:17;4.53;;;2.15;;
67889;SDS011;54685;52.082;5.426;2022-09-27T16:17:44;4.78;;;2.00;;
67889;SDS011;54685;52.082;5.426;2022-09-27T16:20:21;6.35;;;2.33;;
67889;SDS011;54685;52.082;5.426;2022-09-27T16:22:50;6.03;;;2.45;;
67889;SDS011;54685;52.082;5.426;2022-09-27T16:25:19;3.63;;;1.90;;
67889;SDS011;54685;52.082;5.426;2022-09-27T16:27:47;3.55;;;2.03;;
67889;SDS011;54685;52.082;5.426;2022-09-27T16:30:14;6.00;;;2.30;;
67889;SDS011;54685;52.082;5.426;2022-09-27T16:32:41;7.03;;;3.03;;
67889;SDS011;54685;52.082;5.426;2022-09-27T16:35:13;7.07;;;3.17;;
67889;SDS011;54685;52.082;5.426;2022-09-27T16:37:41;6.80;;;3.72;;
67889;SDS011;54685;52.082;5.426;2022-09-27T16:40:08;5.32;;;2.30;;
67889;SDS011;54685;52.082;5.426;2022-09-27T16:42:36;6.65;;;2.13;;
67889;SDS011;54685;52.082;5.426;2022-09-27T16:45:04;3.50;;;1.90;;
67889;SDS011;54685;52.082;5.426;2022-09-27T16:47:37;7.22;;;1.60;;
67889;SDS011;54685;52.082;5.426;2022-09-27T16:50:04;8.02;;;1.92;;
67889;SDS011;54685;52.082;5.426;2022-09-27T16:52:50;5.93;;;2.25;;
67889;SDS011;54685;52.082;5.426;2022-09-27T16:55:21;4.03;;;2.10;;
67889;SDS011;54685;52.082;5.426;2022-09-27T16:57:49;6.28;;;2.80;;
67889;SDS011;54685;52.082;5.426;2022-09-27T17:00:16;6.38;;;2.40;;
67889;SDS011;54685;52.082;5.426;2022-09-27T17:02:47;3.70;;;1.77;;
67889;SDS011;54685;52.082;5.426;2022-09-27T17:05:14;6.75;;;2.47;;
67889;SDS011;54685;52.082;5.426;2022-09-27T17:07:41;6.10;;;2.13;;
67889;SDS011;54685;52.082;5.426;2022-09-27T17:10:08;6.13;;;2.40;;
67889;SDS011;54685;52.082;5.426;2022-09-27T17:12:35;4.35;;;2.28;;
67889;SDS011;54685;52.082;5.426;2022-09-27T17:15:02;4.15;;;2.50;;
67889;SDS011;54685;52.082;5.426;2022-09-27T17:17:29;4.85;;;1.70;;
67889;SDS011;54685;52.082;5.426;2022-09-27T17:19:56;5.10;;;2.67;;
67889;SDS011;54685;52.082;5.426;2022-09-27T17:22:23;18.15;;;7.30;;
67889;SDS011;54685;52.082;5.426;2022-09-27T17:24:49;10.85;;;5.05;;
67889;SDS011;54685;52.082;5.426;2022-09-27T17:27:17;14.18;;;6.22;;
67889;SDS011;54685;52.082;5.426;2022-09-27T17:29:49;10.93;;;6.10;;
67889;SDS011;54685;52.082;5.426;2022-09-27T17:32:15;6.65;;;3.35;;
67889;SDS011;54685;52.082;5.426;2022-09-27T17:34:42;4.93;;;2.92;;
67889;SDS011;54685;52.082;5.426;2022-09-27T17:37:09;6.03;;;2.60;;
67889;SDS011;54685;52.082;5.426;2022-09-27T17:39:36;7.47;;;3.13;;
67889;SDS011;54685;52.082;5.426;2022-09-27T17:42:03;6.55;;;2.60;;
67889;SDS011;54685;52.082;5.426;2022-09-27T17:44:30;3.45;;;1.98;;
67889;SDS011;54685;52.082;5.426;2022-09-27T17:46:57;4.63;;;2.25;;
67889;SDS011;54685;52.082;5.426;2022-09-27T17:49:42;4.60;;;2.00;;
67889;SDS011;54685;52.082;5.426;2022-09-27T17:52:28;4.18;;;1.63;;
67889;SDS011;54685;52.082;5.426;2022-09-27T17:54:57;2.50;;;1.60;;
67889;SDS011;54685;52.082;5.426;2022-09-27T17:57:24;6.20;;;4.30;;
67889;SDS011;54685;52.082;5.426;2022-09-27T17:59:51;17.80;;;10.40;;
67889;SDS011;54685;52.082;5.426;2022-09-27T18:02:18;23.40;;;16.95;;
67889;SDS011;54685;52.082;5.426;2022-09-27T18:04:45;10.27;;;6.13;;
67889;SDS011;54685;52.082;5.426;2022-09-27T18:07:12;15.55;;;7.28;;
67889;SDS011;54685;52.082;5.426;2022-09-27T18:09:39;5.90;;;3.30;;
67889;SDS011;54685;52.082;5.426;2022-09-27T18:12:06;4.03;;;2.15;;
67889;SDS011;54685;52.082;5.426;2022-09-27T18:14:32;3.38;;;2.10;;
67889;SDS011;54685;52.082;5.426;2022-09-27T18:16:59;6.32;;;2.40;;
67889;SDS011;54685;52.082;5.426;2022-09-27T18:19:26;5.07;;;2.30;;
67889;SDS011;54685;52.082;5.426;2022-09-27T18:21:53;6.57;;;2.47;;
67889;SDS011;54685;52.082;5.426;2022-09-27T18:24:22;4.45;;;1.73;;
67889;SDS011;54685;52.082;5.426;2022-09-27T18:26:52;3.53;;;2.00;;
67889;SDS011;54685;52.082;5.426;2022-09-27T18:29:27;6.50;;;1.98;;
67889;SDS011;54685;52.082;5.426;2022-09-27T18:31:55;3.47;;;1.83;;
67889;SDS011;54685;52.082;5.426;2022-09-27T18:34:22;6.28;;;2.35;;
67889;SDS011;54685;52.082;5.426;2022-09-27T18:36:50;7.18;;;2.35;;